sensor_id;sensor_type;location;lat;lon;timestamp;P1;durP1;ratioP1;P2;durP2;ratioP2
74904;SDS011;63465;50.862;6.220;2023-02-01T00:01:06;5.20;;;4.03;;
74904;SDS011;63465;50.862;6.220;2023-02-01T00:03:33;12.67;;;4.63;;
74904;SDS011;63465;50.862;6.220;2023-02-01T00:06:00;14.23;;;4.30;;
74904;SDS011;63465;50.862;6.220;2023-02-01T00:08:27;9.23;;;4.07;;
74904;SDS011;63465;50.862;6.220;2023-02-01T00:11:00;9.27;;;4.03;;
74904;SDS011;63465;50.862;6.220;2023-02-01T00:13:28;11.83;;;4.37;;
74904;SDS011;63465;50.862;6.220;2023-02-01T00:16:01;19.53;;;5.40;;
74904;SDS011;63465;50.862;6.220;2023-02-01T00:18:30;15.80;;;5.03;;
74904;SDS011;63465;50.862;6.220;2023-02-01T00:20:57;10.07;;;5.17;;
74904;SDS011;63465;50.862;6.220;2023-02-01T00:23:24;24.40;;;6.37;;
74904;SDS011;63465;50.862;6.220;2023-02-01T00:25:51;17.83;;;6.30;;
74904;SDS011;63465;50.862;6.220;2023-02-01T00:28:17;9.70;;;5.90;;
74904;SDS011;63465;50.862;6.220;2023-02-01T00:30:44;12.67;;;6.70;;
74904;SDS011;63465;50.862;6.220;2023-02-01T00:33:11;19.27;;;6.60;;
74904;SDS011;63465;50.862;6.220;2023-02-01T00:35:39;12.53;;;7.30;;
74904;SDS011;63465;50.862;6.220;2023-02-01T00:38:06;25.90;;;7.80;;
74904;SDS011;63465;50.862;6.220;2023-02-01T00:40:32;19.00;;;8.20;;
74904;SDS011;63465;50.862;6.220;2023-02-01T00:42:59;15.10;;;7.07;;
74904;SDS011;63465;50.862;6.220;2023-02-01T00:45:26;19.03;;;8.10;;
74904;SDS011;63465;50.862;6.220;2023-02-01T00:47:52;31.07;;;9.10;;
74904;SDS011;63465;50.862;6.220;2023-02-01T00:50:19;21.80;;;8.57;;
74904;SDS011;63465;50.862;6.220;2023-02-01T00:52:47;24.57;;;8.77;;
74904;SDS011;63465;50.862;6.220;2023-02-01T00:55:14;19.17;;;9.17;;
74904;SDS011;63465;50.862;6.220;2023-02-01T00:57:41;25.87;;;9.60;;
74904;SDS011;63465;50.862;6.220;2023-02-01T01:00:08;17.93;;;10.90;;
74904;SDS011;63465;50.862;6.220;2023-02-01T01:02:35;21.70;;;9.67;;
74904;SDS011;63465;50.862;6.220;2023-02-01T01:05:02;18.73;;;8.47;;
74904;SDS011;63465;50.862;6.220;2023-02-01T01:07:29;16.50;;;7.90;;
74904;SDS011;63465;50.862;6.220;2023-02-01T01:09:57;22.90;;;8.70;;
74904;SDS011;63465;50.862;6.220;2023-02-01T01:12:24;20.80;;;9.07;;
74904;SDS011;63465;50.862;6.220;2023-02-01T01:14:51;17.23;;;8.00;;
74904;SDS011;63465;50.862;6.220;2023-02-01T01:17:18;23.20;;;7.50;;
74904;SDS011;63465;50.862;6.220;2023-02-01T01:19:45;24.73;;;9.10;;
74904;SDS011;63465;50.862;6.220;2023-02-01T01:22:11;21.50;;;8.60;;
74904;SDS011;63465;50.862;6.220;2023-02-01T01:24:38;17.83;;;7.93;;
74904;SDS011;63465;50.862;6.220;2023-02-01T01:27:06;15.97;;;8.23;;
74904;SDS011;63465;50.862;6.220;2023-02-01T01:29:33;18.60;;;8.33;;
74904;SDS011;63465;50.862;6.220;2023-02-01T01:32:00;16.03;;;7.63;;
74904;SDS011;63465;50.862;6.220;2023-02-01T01:34:26;22.83;;;8.50;;
74904;SDS011;63465;50.862;6.220;2023-02-01T01:36:54;16.03;;;7.97;;
74904;SDS011;63465;50.862;6.220;2023-02-01T01:39:20;17.17;;;7.37;;
74904;SDS011;63465;50.862;6.220;2023-02-01T01:41:47;18.63;;;7.60;;
74904;SDS011;63465;50.862;6.220;2023-02-01T01:47:26;14.03;;;7.07;;
74904;SDS011;63465;50.862;6.220;2023-02-01T01:49:57;17.97;;;7.17;;
74904;SDS011;63465;50.862;6.220;2023-02-01T01:52:24;23.53;;;6.53;;
74904;SDS011;63465;50.862;6.220;2023-02-01T01:54:51;15.00;;;6.00;;
74904;SDS011;63465;50.862;6.220;2023-02-01T01:57:20;15.47;;;6.00;;
74904;SDS011;63465;50.862;6.220;2023-02-01T01:59:52;15.60;;;6.57;;
74904;SDS011;63465;50.862;6.220;2023-02-01T02:02:25;13.83;;;7.43;;
74904;SDS011;63465;50.862;6.220;2023-02-01T02:04:52;24.27;;;7.33;;
74904;SDS011;63465;50.862;6.220;2023-02-01T02:07:20;17.80;;;6.80;;
74904;SDS011;63465;50.862;6.220;2023-02-01T02:09:49;15.43;;;6.33;;
74904;SDS011;63465;50.862;6.220;2023-02-01T02:12:17;14.93;;;5.90;;
74904;SDS011;63465;50.862;6.220;2023-02-01T02:14:44;15.87;;;6.80;;
74904;SDS011;63465;50.862;6.220;2023-02-01T02:17:15;19.80;;;7.10;;
74904;SDS011;63465;50.862;6.220;2023-02-01T02:20:14;19.80;;;6.90;;
74904;SDS011;63465;50.862;6.220;2023-02-01T02:29:34;13.87;;;6.40;;
74904;SDS011;63465;50.862;6.220;2023-02-01T02:32:23;14.33;;;6.50;;
74904;SDS011;63465;50.862;6.220;2023-02-01T02:35:05;14.03;;;6.30;;
74904;SDS011;63465;50.862;6.220;2023-02-01T02:37:43;15.43;;;6.13;;
74904;SDS011;63465;50.862;6.220;2023-02-01T02:40:17;24.03;;;6.73;;
74904;SDS011;63465;50.862;6.220;2023-02-01T02:42:52;14.23;;;5.93;;
74904;SDS011;63465;50.862;6.220;2023-02-01T02:45:45;14.20;;;6.60;;
74904;SDS011;63465;50.862;6.220;2023-02-01T02:48:44;17.63;;;6.00;;
74904;SDS011;63465;50.862;6.220;2023-02-01T02:51:18;12.30;;;5.33;;
74904;SDS011;63465;50.862;6.220;2023-02-01T02:54:10;20.90;;;5.80;;
74904;SDS011;63465;50.862;6.220;2023-02-01T02:56:58;13.77;;;6.53;;
74904;SDS011;63465;50.862;6.220;2023-02-01T02:59:46;15.10;;;5.67;;
74904;SDS011;63465;50.862;6.220;2023-02-01T03:02:32;17.30;;;6.60;;
74904;SDS011;63465;50.862;6.220;2023-02-01T03:05:18;18.57;;;7.40;;
74904;SDS011;63465;50.862;6.220;2023-02-01T03:07:52;29.33;;;6.83;;
74904;SDS011;63465;50.862;6.220;2023-02-01T03:10:24;9.43;;;6.07;;
74904;SDS011;63465;50.862;6.220;2023-02-01T03:12:59;19.90;;;6.40;;
74904;SDS011;63465;50.862;6.220;2023-02-01T03:15:32;26.47;;;7.07;;
74904;SDS011;63465;50.862;6.220;2023-02-01T03:18:01;15.93;;;6.40;;
74904;SDS011;63465;50.862;6.220;2023-02-01T03:20:32;29.80;;;7.87;;
74904;SDS011;63465;50.862;6.220;2023-02-01T03:23:02;24.87;;;8.20;;
74904;SDS011;63465;50.862;6.220;2023-02-01T03:25:32;25.33;;;8.40;;
74904;SDS011;63465;50.862;6.220;2023-02-01T03:28:02;16.83;;;7.40;;
74904;SDS011;63465;50.862;6.220;2023-02-01T03:30:33;18.00;;;7.93;;
74904;SDS011;63465;50.862;6.220;2023-02-01T03:33:04;26.27;;;8.73;;
74904;SDS011;63465;50.862;6.220;2023-02-01T03:35:40;18.17;;;6.87;;
74904;SDS011;63465;50.862;6.220;2023-02-01T03:38:14;22.90;;;7.07;;
74904;SDS011;63465;50.862;6.220;2023-02-01T03:40:48;21.93;;;6.97;;
74904;SDS011;63465;50.862;6.220;2023-02-01T03:43:20;16.60;;;6.40;;
74904;SDS011;63465;50.862;6.220;2023-02-01T03:45:49;18.00;;;6.40;;
74904;SDS011;63465;50.862;6.220;2023-02-01T03:48:20;15.47;;;5.27;;
74904;SDS011;63465;50.862;6.220;2023-02-01T03:50:51;12.13;;;5.73;;
74904;SDS011;63465;50.862;6.220;2023-02-01T03:53:22;16.80;;;5.57;;
74904;SDS011;63465;50.862;6.220;2023-02-01T03:55:52;14.43;;;5.10;;
74904;SDS011;63465;50.862;6.220;2023-02-01T03:58:20;19.63;;;5.67;;
74904;SDS011;63465;50.862;6.220;2023-02-01T04:00:50;14.00;;;5.00;;
74904;SDS011;63465;50.862;6.220;2023-02-01T04:03:18;9.80;;;4.73;;
74904;SDS011;63465;50.862;6.220;2023-02-01T04:05:45;16.80;;;5.63;;
74904;SDS011;63465;50.862;6.220;2023-02-01T04:08:11;20.07;;;5.10;;
74904;SDS011;63465;50.862;6.220;2023-02-01T04:10:39;18.67;;;4.93;;
74904;SDS011;63465;50.862;6.220;2023-02-01T04:13:08;22.00;;;5.03;;
74904;SDS011;63465;50.862;6.220;2023-02-01T04:15:34;16.40;;;5.57;;
74904;SDS011;63465;50.862;6.220;2023-02-01T04:18:01;9.03;;;4.97;;
74904;SDS011;63465;50.862;6.220;2023-02-01T04:20:28;7.30;;;4.37;;
74904;SDS011;63465;50.862;6.220;2023-02-01T04:22:55;8.83;;;4.20;;
74904;SDS011;63465;50.862;6.220;2023-02-01T04:25:21;19.13;;;5.40;;
74904;SDS011;63465;50.862;6.220;2023-02-01T04:27:49;15.07;;;4.20;;
74904;SDS011;63465;50.862;6.220;2023-02-01T04:30:16;14.23;;;4.97;;
74904;SDS011;63465;50.862;6.220;2023-02-01T04:32:43;13.23;;;4.33;;
74904;SDS011;63465;50.862;6.220;2023-02-01T04:35:10;14.43;;;4.83;;
74904;SDS011;63465;50.862;6.220;2023-02-01T04:37:37;16.13;;;3.90;;
74904;SDS011;63465;50.862;6.220;2023-02-01T04:40:04;10.00;;;3.57;;
74904;SDS011;63465;50.862;6.220;2023-02-01T04:42:32;15.63;;;4.27;;
74904;SDS011;63465;50.862;6.220;2023-02-01T04:45:00;13.70;;;3.73;;
74904;SDS011;63465;50.862;6.220;2023-02-01T04:47:26;6.73;;;3.10;;
74904;SDS011;63465;50.862;6.220;2023-02-01T04:49:53;11.07;;;3.50;;
74904;SDS011;63465;50.862;6.220;2023-02-01T04:52:20;12.40;;;3.00;;
74904;SDS011;63465;50.862;6.220;2023-02-01T04:54:46;8.50;;;3.10;;
74904;SDS011;63465;50.862;6.220;2023-02-01T04:57:13;6.47;;;3.30;;
74904;SDS011;63465;50.862;6.220;2023-02-01T04:59:40;8.23;;;2.50;;
74904;SDS011;63465;50.862;6.220;2023-02-01T05:02:08;13.50;;;3.33;;
74904;SDS011;63465;50.862;6.220;2023-02-01T05:04:35;14.87;;;3.27;;
74904;SDS011;63465;50.862;6.220;2023-02-01T05:07:01;13.27;;;3.27;;
74904;SDS011;63465;50.862;6.220;2023-02-01T05:09:28;7.60;;;2.40;;
74904;SDS011;63465;50.862;6.220;2023-02-01T05:11:55;11.90;;;2.77;;
74904;SDS011;63465;50.862;6.220;2023-02-01T05:14:39;19.53;;;3.27;;
74904;SDS011;63465;50.862;6.220;2023-02-01T05:17:05;8.93;;;2.93;;
74904;SDS011;63465;50.862;6.220;2023-02-01T05:19:33;13.80;;;2.73;;
74904;SDS011;63465;50.862;6.220;2023-02-01T05:22:00;14.13;;;3.50;;
74904;SDS011;63465;50.862;6.220;2023-02-01T05:24:27;13.13;;;3.67;;
74904;SDS011;63465;50.862;6.220;2023-02-01T05:26:54;10.00;;;2.70;;
74904;SDS011;63465;50.862;6.220;2023-02-01T05:29:20;10.93;;;3.10;;
74904;SDS011;63465;50.862;6.220;2023-02-01T05:31:47;12.30;;;2.60;;
74904;SDS011;63465;50.862;6.220;2023-02-01T05:34:15;9.60;;;2.60;;
74904;SDS011;63465;50.862;6.220;2023-02-01T05:36:42;7.53;;;2.07;;
74904;SDS011;63465;50.862;6.220;2023-02-01T05:39:09;12.57;;;3.40;;
74904;SDS011;63465;50.862;6.220;2023-02-01T05:41:36;9.53;;;2.67;;
74904;SDS011;63465;50.862;6.220;2023-02-01T05:44:03;8.63;;;3.53;;
74904;SDS011;63465;50.862;6.220;2023-02-01T05:46:32;26.17;;;3.07;;
74904;SDS011;63465;50.862;6.220;2023-02-01T05:48:59;8.13;;;2.80;;
74904;SDS011;63465;50.862;6.220;2023-02-01T05:51:27;15.60;;;3.50;;
74904;SDS011;63465;50.862;6.220;2023-02-01T05:53:54;14.73;;;3.57;;
74904;SDS011;63465;50.862;6.220;2023-02-01T05:56:21;15.43;;;3.53;;
74904;SDS011;63465;50.862;6.220;2023-02-01T05:58:48;10.97;;;2.83;;
74904;SDS011;63465;50.862;6.220;2023-02-01T06:01:14;9.30;;;2.70;;
74904;SDS011;63465;50.862;6.220;2023-02-01T06:03:41;9.27;;;3.17;;
74904;SDS011;63465;50.862;6.220;2023-02-01T06:06:08;9.90;;;2.80;;
74904;SDS011;63465;50.862;6.220;2023-02-01T06:08:36;6.90;;;3.07;;
74904;SDS011;63465;50.862;6.220;2023-02-01T06:11:05;5.07;;;2.80;;
74904;SDS011;63465;50.862;6.220;2023-02-01T06:13:33;17.40;;;3.30;;
74904;SDS011;63465;50.862;6.220;2023-02-01T06:16:00;13.40;;;2.87;;
74904;SDS011;63465;50.862;6.220;2023-02-01T06:18:27;7.40;;;2.77;;
74904;SDS011;63465;50.862;6.220;2023-02-01T06:20:55;15.77;;;3.13;;
74904;SDS011;63465;50.862;6.220;2023-02-01T06:23:25;15.33;;;2.87;;
74904;SDS011;63465;50.862;6.220;2023-02-01T06:25:57;11.23;;;2.60;;
74904;SDS011;63465;50.862;6.220;2023-02-01T06:28:25;6.90;;;2.60;;
74904;SDS011;63465;50.862;6.220;2023-02-01T06:30:51;8.50;;;3.47;;
74904;SDS011;63465;50.862;6.220;2023-02-01T06:33:18;12.47;;;3.23;;
74904;SDS011;63465;50.862;6.220;2023-02-01T06:35:45;16.33;;;3.00;;
74904;SDS011;63465;50.862;6.220;2023-02-01T06:38:12;7.13;;;3.10;;
74904;SDS011;63465;50.862;6.220;2023-02-01T06:40:39;11.50;;;2.83;;
74904;SDS011;63465;50.862;6.220;2023-02-01T06:43:08;8.10;;;3.17;;
74904;SDS011;63465;50.862;6.220;2023-02-01T06:45:35;11.73;;;3.10;;
74904;SDS011;63465;50.862;6.220;2023-02-01T06:48:02;14.20;;;3.23;;
74904;SDS011;63465;50.862;6.220;2023-02-01T06:50:28;9.17;;;3.30;;
74904;SDS011;63465;50.862;6.220;2023-02-01T06:52:55;9.10;;;2.80;;
74904;SDS011;63465;50.862;6.220;2023-02-01T06:55:22;7.93;;;2.73;;
74904;SDS011;63465;50.862;6.220;2023-02-01T06:57:52;14.43;;;4.03;;
74904;SDS011;63465;50.862;6.220;2023-02-01T07:00:21;5.77;;;2.47;;
74904;SDS011;63465;50.862;6.220;2023-02-01T07:02:48;13.77;;;3.33;;
74904;SDS011;63465;50.862;6.220;2023-02-01T07:05:16;11.37;;;2.90;;
74904;SDS011;63465;50.862;6.220;2023-02-01T07:07:43;12.17;;;3.93;;
74904;SDS011;63465;50.862;6.220;2023-02-01T07:10:10;21.37;;;3.37;;
74904;SDS011;63465;50.862;6.220;2023-02-01T07:12:37;9.20;;;3.00;;
74904;SDS011;63465;50.862;6.220;2023-02-01T07:15:04;14.60;;;3.87;;
74904;SDS011;63465;50.862;6.220;2023-02-01T07:17:33;5.10;;;2.20;;
74904;SDS011;63465;50.862;6.220;2023-02-01T07:20:00;8.50;;;2.87;;
74904;SDS011;63465;50.862;6.220;2023-02-01T07:22:27;7.57;;;2.47;;
74904;SDS011;63465;50.862;6.220;2023-02-01T07:24:54;11.03;;;2.97;;
74904;SDS011;63465;50.862;6.220;2023-02-01T07:27:21;7.00;;;2.50;;
74904;SDS011;63465;50.862;6.220;2023-02-01T07:29:50;13.57;;;2.63;;
74904;SDS011;63465;50.862;6.220;2023-02-01T07:32:16;6.10;;;2.43;;
74904;SDS011;63465;50.862;6.220;2023-02-01T07:34:44;14.23;;;2.77;;
74904;SDS011;63465;50.862;6.220;2023-02-01T07:37:11;16.37;;;3.50;;
74904;SDS011;63465;50.862;6.220;2023-02-01T07:39:38;18.40;;;2.57;;
74904;SDS011;63465;50.862;6.220;2023-02-01T07:42:05;11.40;;;3.67;;
74904;SDS011;63465;50.862;6.220;2023-02-01T07:44:32;15.23;;;3.23;;
74904;SDS011;63465;50.862;6.220;2023-02-01T07:46:58;7.37;;;2.30;;
74904;SDS011;63465;50.862;6.220;2023-02-01T07:49:25;16.67;;;3.43;;
74904;SDS011;63465;50.862;6.220;2023-02-01T07:51:53;10.13;;;2.93;;
74904;SDS011;63465;50.862;6.220;2023-02-01T07:54:20;14.03;;;2.70;;
74904;SDS011;63465;50.862;6.220;2023-02-01T07:56:47;6.80;;;2.60;;
74904;SDS011;63465;50.862;6.220;2023-02-01T07:59:13;12.60;;;3.20;;
74904;SDS011;63465;50.862;6.220;2023-02-01T08:01:41;10.27;;;3.03;;
74904;SDS011;63465;50.862;6.220;2023-02-01T08:04:09;11.63;;;2.90;;
74904;SDS011;63465;50.862;6.220;2023-02-01T08:06:37;10.63;;;3.00;;
74904;SDS011;63465;50.862;6.220;2023-02-01T08:09:06;9.47;;;2.57;;
74904;SDS011;63465;50.862;6.220;2023-02-01T08:11:33;11.17;;;3.33;;
74904;SDS011;63465;50.862;6.220;2023-02-01T08:14:02;11.90;;;3.33;;
74904;SDS011;63465;50.862;6.220;2023-02-01T08:16:28;8.83;;;3.10;;
74904;SDS011;63465;50.862;6.220;2023-02-01T08:18:55;15.57;;;3.27;;
74904;SDS011;63465;50.862;6.220;2023-02-01T08:21:22;17.13;;;3.20;;
74904;SDS011;63465;50.862;6.220;2023-02-01T08:23:51;14.33;;;2.93;;
74904;SDS011;63465;50.862;6.220;2023-02-01T08:26:20;8.93;;;2.80;;
74904;SDS011;63465;50.862;6.220;2023-02-01T08:28:48;18.40;;;3.70;;
74904;SDS011;63465;50.862;6.220;2023-02-01T08:31:19;16.07;;;3.00;;
74904;SDS011;63465;50.862;6.220;2023-02-01T08:33:48;10.63;;;3.40;;
74904;SDS011;63465;50.862;6.220;2023-02-01T08:36:16;12.20;;;3.40;;
74904;SDS011;63465;50.862;6.220;2023-02-01T08:38:43;11.30;;;2.67;;
74904;SDS011;63465;50.862;6.220;2023-02-01T08:41:11;5.03;;;2.60;;
74904;SDS011;63465;50.862;6.220;2023-02-01T08:43:40;12.60;;;4.27;;
74904;SDS011;63465;50.862;6.220;2023-02-01T08:46:09;17.63;;;3.40;;
74904;SDS011;63465;50.862;6.220;2023-02-01T08:48:36;6.10;;;2.50;;
74904;SDS011;63465;50.862;6.220;2023-02-01T08:51:03;19.47;;;3.50;;
74904;SDS011;63465;50.862;6.220;2023-02-01T08:53:32;11.10;;;1.93;;
74904;SDS011;63465;50.862;6.220;2023-02-01T08:55:58;15.70;;;3.17;;
74904;SDS011;63465;50.862;6.220;2023-02-01T08:58:25;14.30;;;2.73;;
74904;SDS011;63465;50.862;6.220;2023-02-01T09:00:53;14.13;;;2.63;;
74904;SDS011;63465;50.862;6.220;2023-02-01T09:03:20;18.77;;;2.83;;
74904;SDS011;63465;50.862;6.220;2023-02-01T09:05:47;10.57;;;2.67;;
74904;SDS011;63465;50.862;6.220;2023-02-01T09:08:14;13.07;;;3.00;;
74904;SDS011;63465;50.862;6.220;2023-02-01T09:10:40;6.97;;;2.60;;
74904;SDS011;63465;50.862;6.220;2023-02-01T09:13:07;18.77;;;3.50;;
74904;SDS011;63465;50.862;6.220;2023-02-01T09:15:34;14.90;;;3.43;;
74904;SDS011;63465;50.862;6.220;2023-02-01T09:18:04;12.03;;;2.93;;
74904;SDS011;63465;50.862;6.220;2023-02-01T09:20:31;9.90;;;2.70;;
74904;SDS011;63465;50.862;6.220;2023-02-01T09:22:57;18.73;;;2.77;;
74904;SDS011;63465;50.862;6.220;2023-02-01T09:25:25;12.67;;;2.90;;
74904;SDS011;63465;50.862;6.220;2023-02-01T09:27:52;14.10;;;3.10;;
74904;SDS011;63465;50.862;6.220;2023-02-01T09:30:18;15.17;;;3.50;;
74904;SDS011;63465;50.862;6.220;2023-02-01T09:32:45;11.50;;;2.80;;
74904;SDS011;63465;50.862;6.220;2023-02-01T09:35:13;22.90;;;3.50;;
74904;SDS011;63465;50.862;6.220;2023-02-01T09:37:40;10.70;;;2.93;;
74904;SDS011;63465;50.862;6.220;2023-02-01T09:40:08;14.07;;;2.83;;
74904;SDS011;63465;50.862;6.220;2023-02-01T09:45:32;7.30;;;2.67;;
74904;SDS011;63465;50.862;6.220;2023-02-01T09:48:10;9.40;;;2.77;;
74904;SDS011;63465;50.862;6.220;2023-02-01T09:50:43;13.10;;;3.57;;
74904;SDS011;63465;50.862;6.220;2023-02-01T09:53:15;13.13;;;2.77;;
74904;SDS011;63465;50.862;6.220;2023-02-01T09:55:47;9.63;;;2.80;;
74904;SDS011;63465;50.862;6.220;2023-02-01T09:58:17;9.37;;;3.30;;
74904;SDS011;63465;50.862;6.220;2023-02-01T10:00:50;15.30;;;4.70;;
74904;SDS011;63465;50.862;6.220;2023-02-01T10:03:19;17.43;;;3.03;;
74904;SDS011;63465;50.862;6.220;2023-02-01T10:12:00;9.37;;;2.60;;
74904;SDS011;63465;50.862;6.220;2023-02-01T10:14:51;9.63;;;2.60;;
74904;SDS011;63465;50.862;6.220;2023-02-01T10:17:28;7.80;;;2.73;;
74904;SDS011;63465;50.862;6.220;2023-02-01T10:20:10;26.23;;;3.80;;
74904;SDS011;63465;50.862;6.220;2023-02-01T10:22:47;10.53;;;2.83;;
74904;SDS011;63465;50.862;6.220;2023-02-01T10:25:21;25.20;;;4.30;;
74904;SDS011;63465;50.862;6.220;2023-02-01T10:27:53;14.53;;;2.90;;
74904;SDS011;63465;50.862;6.220;2023-02-01T10:30:21;12.63;;;3.20;;
74904;SDS011;63465;50.862;6.220;2023-02-01T10:32:49;18.33;;;3.60;;
74904;SDS011;63465;50.862;6.220;2023-02-01T10:35:22;9.10;;;2.87;;
74904;SDS011;63465;50.862;6.220;2023-02-01T10:37:54;19.83;;;3.27;;
74904;SDS011;63465;50.862;6.220;2023-02-01T10:40:26;22.30;;;3.10;;
74904;SDS011;63465;50.862;6.220;2023-02-01T10:42:54;6.53;;;2.30;;
74904;SDS011;63465;50.862;6.220;2023-02-01T10:45:24;8.43;;;2.63;;
74904;SDS011;63465;50.862;6.220;2023-02-01T10:47:54;21.37;;;3.67;;
74904;SDS011;63465;50.862;6.220;2023-02-01T10:50:28;8.50;;;2.87;;
74904;SDS011;63465;50.862;6.220;2023-02-01T10:53:03;13.00;;;3.00;;
74904;SDS011;63465;50.862;6.220;2023-02-01T10:55:37;14.30;;;3.57;;
74904;SDS011;63465;50.862;6.220;2023-02-01T10:58:06;10.00;;;2.83;;
74904;SDS011;63465;50.862;6.220;2023-02-01T11:00:44;13.70;;;3.37;;
74904;SDS011;63465;50.862;6.220;2023-02-01T11:03:30;8.53;;;3.20;;
74904;SDS011;63465;50.862;6.220;2023-02-01T11:06:00;8.73;;;3.60;;
74904;SDS011;63465;50.862;6.220;2023-02-01T11:08:30;12.20;;;3.30;;
74904;SDS011;63465;50.862;6.220;2023-02-01T11:10:58;23.40;;;3.07;;
74904;SDS011;63465;50.862;6.220;2023-02-01T11:13:28;9.23;;;2.70;;
74904;SDS011;63465;50.862;6.220;2023-02-01T11:15:57;7.00;;;3.30;;
74904;SDS011;63465;50.862;6.220;2023-02-01T11:18:25;7.53;;;2.77;;
74904;SDS011;63465;50.862;6.220;2023-02-01T11:20:53;6.40;;;2.30;;
74904;SDS011;63465;50.862;6.220;2023-02-01T11:23:21;14.53;;;3.03;;
74904;SDS011;63465;50.862;6.220;2023-02-01T11:25:52;10.73;;;3.27;;
74904;SDS011;63465;50.862;6.220;2023-02-01T11:28:21;16.43;;;3.10;;
74904;SDS011;63465;50.862;6.220;2023-02-01T11:30:51;13.90;;;3.33;;
74904;SDS011;63465;50.862;6.220;2023-02-01T11:33:22;11.33;;;3.53;;
74904;SDS011;63465;50.862;6.220;2023-02-01T11:35:54;8.80;;;2.97;;
74904;SDS011;63465;50.862;6.220;2023-02-01T11:38:25;12.33;;;3.10;;
74904;SDS011;63465;50.862;6.220;2023-02-01T11:40:55;14.13;;;3.30;;
74904;SDS011;63465;50.862;6.220;2023-02-01T11:43:38;15.30;;;3.07;;
74904;SDS011;63465;50.862;6.220;2023-02-01T11:46:22;11.93;;;2.40;;
74904;SDS011;63465;50.862;6.220;2023-02-01T11:48:53;12.47;;;3.23;;
74904;SDS011;63465;50.862;6.220;2023-02-01T11:51:26;7.37;;;2.37;;
74904;SDS011;63465;50.862;6.220;2023-02-01T11:54:10;9.70;;;3.00;;
74904;SDS011;63465;50.862;6.220;2023-02-01T11:56:54;15.00;;;3.00;;
74904;SDS011;63465;50.862;6.220;2023-02-01T11:59:34;11.40;;;3.03;;
74904;SDS011;63465;50.862;6.220;2023-02-01T12:02:22;4.80;;;2.40;;
74904;SDS011;63465;50.862;6.220;2023-02-01T12:05:22;8.37;;;2.47;;
74904;SDS011;63465;50.862;6.220;2023-02-01T12:08:00;15.13;;;2.80;;
74904;SDS011;63465;50.862;6.220;2023-02-01T12:10:43;7.20;;;2.50;;
74904;SDS011;63465;50.862;6.220;2023-02-01T12:13:24;5.13;;;2.10;;
74904;SDS011;63465;50.862;6.220;2023-02-01T12:16:08;11.17;;;2.60;;
74904;SDS011;63465;50.862;6.220;2023-02-01T12:18:53;13.53;;;2.90;;
74904;SDS011;63465;50.862;6.220;2023-02-01T12:21:34;15.70;;;3.00;;
74904;SDS011;63465;50.862;6.220;2023-02-01T12:24:19;9.80;;;3.20;;
74904;SDS011;63465;50.862;6.220;2023-02-01T12:27:01;19.17;;;3.00;;
74904;SDS011;63465;50.862;6.220;2023-02-01T12:29:47;10.20;;;3.30;;
74904;SDS011;63465;50.862;6.220;2023-02-01T12:32:25;19.87;;;2.70;;
74904;SDS011;63465;50.862;6.220;2023-02-01T12:35:13;7.20;;;2.67;;
74904;SDS011;63465;50.862;6.220;2023-02-01T12:38:06;5.70;;;2.47;;
74904;SDS011;63465;50.862;6.220;2023-02-01T12:40:51;6.30;;;1.87;;
74904;SDS011;63465;50.862;6.220;2023-02-01T12:43:33;8.27;;;2.30;;
74904;SDS011;63465;50.862;6.220;2023-02-01T12:46:07;6.93;;;2.43;;
74904;SDS011;63465;50.862;6.220;2023-02-01T12:48:39;14.03;;;2.30;;
74904;SDS011;63465;50.862;6.220;2023-02-01T12:51:13;8.73;;;2.67;;
74904;SDS011;63465;50.862;6.220;2023-02-01T12:53:44;11.10;;;2.80;;
74904;SDS011;63465;50.862;6.220;2023-02-01T12:56:16;7.00;;;2.50;;
74904;SDS011;63465;50.862;6.220;2023-02-01T12:58:49;11.30;;;2.47;;
74904;SDS011;63465;50.862;6.220;2023-02-01T13:01:21;21.57;;;2.77;;
74904;SDS011;63465;50.862;6.220;2023-02-01T13:03:57;6.40;;;2.60;;
74904;SDS011;63465;50.862;6.220;2023-02-01T13:06:32;7.70;;;2.30;;
74904;SDS011;63465;50.862;6.220;2023-02-01T13:09:04;5.23;;;2.77;;
74904;SDS011;63465;50.862;6.220;2023-02-01T13:11:42;7.93;;;2.63;;
74904;SDS011;63465;50.862;6.220;2023-02-01T13:14:15;9.10;;;2.50;;
74904;SDS011;63465;50.862;6.220;2023-02-01T13:16:52;16.53;;;2.50;;
74904;SDS011;63465;50.862;6.220;2023-02-01T13:19:26;10.73;;;2.40;;
74904;SDS011;63465;50.862;6.220;2023-02-01T13:21:56;7.30;;;2.10;;
74904;SDS011;63465;50.862;6.220;2023-02-01T13:24:30;6.17;;;1.90;;
74904;SDS011;63465;50.862;6.220;2023-02-01T13:27:00;6.77;;;2.43;;
74904;SDS011;63465;50.862;6.220;2023-02-01T13:29:27;5.20;;;2.10;;
74904;SDS011;63465;50.862;6.220;2023-02-01T13:34:57;3.57;;;2.03;;
74904;SDS011;63465;50.862;6.220;2023-02-01T13:37:39;4.53;;;2.07;;
74904;SDS011;63465;50.862;6.220;2023-02-01T13:40:22;8.23;;;2.93;;
74904;SDS011;63465;50.862;6.220;2023-02-01T13:43:00;8.30;;;2.43;;
74904;SDS011;63465;50.862;6.220;2023-02-01T13:45:32;5.40;;;2.67;;
74904;SDS011;63465;50.862;6.220;2023-02-01T13:48:04;6.63;;;2.40;;
74904;SDS011;63465;50.862;6.220;2023-02-01T13:50:33;6.00;;;2.10;;
74904;SDS011;63465;50.862;6.220;2023-02-01T13:53:04;13.33;;;2.07;;
74904;SDS011;63465;50.862;6.220;2023-02-01T13:55:40;9.20;;;2.30;;
74904;SDS011;63465;50.862;6.220;2023-02-01T13:58:15;8.57;;;3.00;;
74904;SDS011;63465;50.862;6.220;2023-02-01T14:00:45;9.77;;;2.17;;
74904;SDS011;63465;50.862;6.220;2023-02-01T14:03:18;8.53;;;2.50;;
74904;SDS011;63465;50.862;6.220;2023-02-01T14:06:00;8.57;;;2.27;;
74904;SDS011;63465;50.862;6.220;2023-02-01T14:08:39;8.10;;;2.50;;
74904;SDS011;63465;50.862;6.220;2023-02-01T14:11:31;11.83;;;3.17;;
74904;SDS011;63465;50.862;6.220;2023-02-01T14:23:08;15.70;;;2.30;;
74904;SDS011;63465;50.862;6.220;2023-02-01T14:25:39;15.63;;;4.33;;
74904;SDS011;63465;50.862;6.220;2023-02-01T14:28:10;9.93;;;3.10;;
74904;SDS011;63465;50.862;6.220;2023-02-01T14:30:38;9.43;;;2.40;;
74904;SDS011;63465;50.862;6.220;2023-02-01T14:33:12;8.30;;;2.03;;
74904;SDS011;63465;50.862;6.220;2023-02-01T14:35:56;18.33;;;3.50;;
74904;SDS011;63465;50.862;6.220;2023-02-01T14:38:31;12.37;;;3.67;;
74904;SDS011;63465;50.862;6.220;2023-02-01T14:41:12;5.87;;;2.60;;
74904;SDS011;63465;50.862;6.220;2023-02-01T14:43:50;14.57;;;2.90;;
74904;SDS011;63465;50.862;6.220;2023-02-01T14:46:17;7.40;;;2.43;;
74904;SDS011;63465;50.862;6.220;2023-02-01T14:48:45;6.37;;;2.37;;
74904;SDS011;63465;50.862;6.220;2023-02-01T14:51:15;7.77;;;2.20;;
74904;SDS011;63465;50.862;6.220;2023-02-01T14:53:43;8.23;;;3.43;;
74904;SDS011;63465;50.862;6.220;2023-02-01T14:56:13;10.00;;;3.67;;
74904;SDS011;63465;50.862;6.220;2023-02-01T14:58:47;14.83;;;3.97;;
74904;SDS011;63465;50.862;6.220;2023-02-01T15:01:20;7.13;;;2.93;;
74904;SDS011;63465;50.862;6.220;2023-02-01T15:03:50;6.70;;;2.00;;
74904;SDS011;63465;50.862;6.220;2023-02-01T15:06:30;23.43;;;10.60;;
74904;SDS011;63465;50.862;6.220;2023-02-01T15:09:01;12.53;;;2.77;;
74904;SDS011;63465;50.862;6.220;2023-02-01T15:11:29;19.53;;;2.20;;
74904;SDS011;63465;50.862;6.220;2023-02-01T15:13:56;12.33;;;3.83;;
74904;SDS011;63465;50.862;6.220;2023-02-01T15:16:25;23.60;;;9.07;;
74904;SDS011;63465;50.862;6.220;2023-02-01T15:19:08;97.50;;;38.67;;
74904;SDS011;63465;50.862;6.220;2023-02-01T15:21:46;64.27;;;27.17;;
74904;SDS011;63465;50.862;6.220;2023-02-01T15:24:14;9.50;;;4.57;;
74904;SDS011;63465;50.862;6.220;2023-02-01T15:26:45;9.77;;;2.67;;
74904;SDS011;63465;50.862;6.220;2023-02-01T15:29:12;18.33;;;7.10;;
74904;SDS011;63465;50.862;6.220;2023-02-01T15:31:40;12.77;;;3.10;;